createdAt,value
2022-11-28T00:00:12.411Z,5.22
2022-11-28T00:02:46.142Z,6.63
2022-11-28T00:05:14.643Z,8.88
2022-11-28T00:07:43.063Z,7.03
2022-11-28T00:10:15.493Z,8.05
2022-11-28T00:12:46.232Z,7.88
2022-11-28T00:15:16.155Z,5.80
2022-11-28T00:17:44.827Z,7.53
2022-11-28T00:20:14.863Z,7.95
2022-11-28T00:22:44.983Z,6.90
2022-11-28T00:25:14.698Z,5.65
2022-11-28T00:27:47.225Z,5.60
2022-11-28T00:30:16.518Z,7.03
2022-11-28T00:32:48.044Z,7.43
2022-11-28T00:35:16.732Z,7.15
2022-11-28T00:37:44.960Z,7.53
2022-11-28T00:40:13.909Z,6.35
2022-11-28T00:42:42.073Z,6.28
2022-11-28T00:45:14.368Z,5.00
2022-11-28T00:47:44.137Z,5.93
2022-11-28T00:50:15.125Z,7.20
2022-11-28T00:52:45.833Z,5.70
2022-11-28T00:55:14.740Z,4.80
2022-11-28T00:57:43.131Z,5.70
2022-11-28T01:00:14.274Z,5.72
2022-11-28T01:02:42.545Z,6.13
2022-11-28T01:05:11.324Z,6.50
2022-11-28T01:07:42.688Z,5.88
2022-11-28T01:10:13.204Z,5.88
2022-11-28T01:12:41.699Z,6.13
2022-11-28T01:15:14.200Z,4.75
2022-11-28T01:17:42.760Z,5.95
2022-11-28T01:20:13.228Z,4.53
2022-11-28T01:22:42.009Z,5.53
2022-11-28T01:25:14.203Z,6.22
2022-11-28T01:27:45.098Z,5.78
2022-11-28T01:30:16.334Z,4.10
2022-11-28T01:32:48.470Z,5.05
2022-11-28T01:35:17.588Z,4.82
2022-11-28T01:37:46.584Z,6.30
2022-11-28T01:40:15.650Z,5.75
2022-11-28T01:42:46.212Z,6.30
2022-11-28T01:45:23.141Z,4.50
2022-11-28T01:47:58.046Z,4.55
2022-11-28T01:50:27.881Z,5.07
2022-11-28T01:53:02.001Z,5.03
2022-11-28T01:55:35.304Z,5.72
2022-11-28T01:58:04.719Z,6.00
2022-11-28T02:00:37.779Z,5.05
2022-11-28T02:03:14.225Z,4.57
2022-11-28T02:05:43.993Z,7.38
2022-11-28T02:08:14.721Z,6.40
2022-11-28T02:10:56.978Z,5.55
2022-11-28T02:13:40.130Z,5.55
2022-11-28T02:16:31.840Z,6.20
2022-11-28T02:19:17.540Z,5.45
2022-11-28T02:22:00.763Z,4.80
2022-11-28T02:25:04.586Z,7.10
2022-11-28T02:28:07.998Z,4.80
2022-11-28T02:30:49.657Z,5.22
2022-11-28T02:33:27.053Z,4.90
2022-11-28T02:36:05.689Z,4.15
2022-11-28T02:38:47.526Z,5.28
2022-11-28T02:41:21.819Z,4.75
2022-11-28T02:44:01.488Z,4.28
2022-11-28T02:46:42.140Z,4.32
2022-11-28T02:49:20.681Z,5.43
2022-11-28T02:51:54.253Z,5.15
2022-11-28T02:54:28.573Z,4.35
2022-11-28T02:56:59.173Z,4.82
2022-11-28T02:59:34.917Z,4.60
2022-11-28T03:02:05.791Z,4.82
2022-11-28T03:04:45.795Z,5.53
2022-11-28T03:07:30.304Z,4.32
2022-11-28T03:10:10.745Z,4.22
2022-11-28T03:12:52.761Z,4.72
2022-11-28T03:15:31.393Z,3.95
2022-11-28T03:18:09.993Z,4.68
2022-11-28T03:20:49.211Z,5.07
2022-11-28T03:23:22.806Z,4.47
2022-11-28T03:26:00.037Z,4.53
2022-11-28T03:28:38.118Z,4.93
2022-11-28T03:31:13.143Z,6.20
2022-11-28T03:33:46.068Z,5.22
2022-11-28T03:36:20.750Z,5.72
2022-11-28T03:38:54.140Z,5.18
2022-11-28T03:41:29.832Z,4.80
2022-11-28T03:44:03.448Z,4.63
2022-11-28T03:46:37.769Z,5.72
2022-11-28T03:49:10.358Z,5.30
2022-11-28T03:51:48.074Z,7.03
2022-11-28T03:54:23.625Z,6.00
2022-11-28T03:56:58.605Z,5.22
2022-11-28T03:59:34.625Z,5.75
2022-11-28T04:02:09.489Z,4.25
2022-11-28T04:04:45.374Z,5.47
2022-11-28T04:07:25.063Z,4.68
2022-11-28T04:10:01.362Z,5.55
2022-11-28T04:12:38.590Z,4.95
2022-11-28T04:15:13.900Z,4.35
2022-11-28T04:17:52.570Z,4.82
2022-11-28T04:20:30.740Z,4.80
2022-11-28T04:23:06.571Z,4.90
2022-11-28T04:25:39.206Z,4.18
2022-11-28T04:28:12.392Z,5.03
2022-11-28T04:30:45.338Z,6.00
2022-11-28T04:33:15.501Z,4.65
2022-11-28T04:35:47.803Z,3.97
2022-11-28T04:38:18.969Z,5.35
2022-11-28T04:40:53.715Z,6.15
2022-11-28T04:43:29.042Z,5.88
2022-11-28T04:46:05.456Z,5.38
2022-11-28T04:48:34.953Z,4.60
2022-11-28T04:51:14.537Z,5.90
2022-11-28T04:53:53.532Z,6.75
2022-11-28T04:56:26.689Z,5.47
2022-11-28T04:58:57.519Z,4.65
2022-11-28T05:01:31.380Z,5.55
2022-11-28T05:04:02.766Z,5.10
2022-11-28T05:09:05.917Z,4.43
2022-11-28T05:11:37.188Z,4.95
2022-11-28T05:14:06.518Z,4.43
2022-11-28T05:16:36.244Z,3.92
2022-11-28T05:21:35.862Z,4.55
2022-11-28T05:24:06.290Z,4.65
2022-11-28T05:26:35.589Z,3.65
2022-11-28T05:29:04.139Z,4.65
2022-11-28T05:31:32.468Z,3.78
2022-11-28T05:34:01.264Z,3.83
2022-11-28T05:36:30.036Z,4.00
2022-11-28T05:38:59.315Z,4.38
2022-11-28T05:41:31.516Z,4.32
2022-11-28T05:44:01.311Z,4.22
2022-11-28T05:46:32.715Z,4.32
2022-11-28T05:49:02.695Z,3.70
2022-11-28T05:54:03.456Z,3.00
2022-11-28T05:56:42.103Z,4.25
2022-11-28T05:59:11.588Z,4.17
2022-11-28T06:01:41.081Z,4.90
2022-11-28T06:04:13.502Z,4.05
2022-11-28T06:06:43.108Z,3.67
2022-11-28T06:09:11.352Z,3.10
2022-11-28T06:11:41.432Z,3.72
2022-11-28T06:14:11.974Z,4.00
2022-11-28T06:16:46.311Z,4.15
2022-11-28T06:19:20.309Z,3.42
2022-11-28T06:21:50.943Z,3.50
2022-11-28T06:24:19.752Z,3.65
2022-11-28T06:26:50.258Z,2.78
2022-11-28T06:29:21.696Z,3.13
2022-11-28T06:31:50.118Z,3.60
2022-11-28T06:34:19.274Z,4.35
2022-11-28T06:36:55.117Z,2.92
2022-11-28T06:39:23.882Z,3.13
2022-11-28T06:41:53.822Z,4.03
2022-11-28T06:46:55.498Z,4.78
2022-11-28T06:49:26.287Z,4.70
2022-11-28T06:51:55.435Z,5.25
2022-11-28T06:54:24.209Z,4.97
2022-11-28T06:56:53.954Z,4.05
2022-11-28T06:59:22.654Z,5.00
2022-11-28T07:01:51.756Z,4.63
2022-11-28T07:04:19.935Z,4.90
2022-11-28T07:06:48.339Z,4.85
2022-11-28T07:09:21.496Z,5.95
2022-11-28T07:11:50.279Z,4.90
2022-11-28T07:14:24.301Z,5.20
2022-11-28T07:16:54.674Z,3.78
2022-11-28T07:19:26.101Z,4.57
2022-11-28T07:21:54.653Z,4.35
2022-11-28T07:24:26.432Z,4.05
2022-11-28T07:26:54.729Z,4.50
2022-11-28T07:29:30.721Z,5.28
2022-11-28T07:32:00.062Z,4.80
2022-11-28T07:34:29.669Z,4.53
2022-11-28T07:39:38.989Z,4.43
2022-11-28T07:42:09.175Z,4.38
2022-11-28T07:44:40.155Z,4.32
2022-11-28T07:47:08.309Z,4.78
2022-11-28T07:49:38.629Z,4.60
2022-11-28T07:52:07.012Z,4.13
2022-11-28T07:54:35.258Z,4.05
2022-11-28T07:57:11.941Z,3.38
2022-11-28T07:59:49.018Z,4.05
2022-11-28T08:02:17.522Z,4.28
2022-11-28T08:04:49.598Z,4.07
2022-11-28T08:07:23.161Z,3.45
2022-11-28T08:09:53.098Z,4.65
2022-11-28T08:12:21.677Z,4.88
2022-11-28T08:14:53.561Z,4.32
2022-11-28T08:19:51.700Z,4.82
2022-11-28T08:22:20.208Z,4.25
2022-11-28T08:24:48.338Z,4.65
2022-11-28T08:27:16.583Z,5.57
2022-11-28T08:29:49.125Z,4.13
2022-11-28T08:32:21.982Z,4.78
2022-11-28T08:34:52.382Z,6.03
2022-11-28T08:37:20.732Z,4.80
2022-11-28T08:39:52.691Z,4.82
2022-11-28T08:42:23.158Z,4.10
2022-11-28T08:44:54.855Z,4.13
2022-11-28T08:47:24.658Z,4.07
2022-11-28T08:49:58.998Z,3.40
2022-11-28T08:52:30.132Z,3.95
2022-11-28T08:55:00.555Z,4.05
2022-11-28T08:57:30.188Z,3.67
2022-11-28T08:59:58.995Z,3.97
2022-11-28T09:02:28.946Z,4.27
2022-11-28T09:04:57.836Z,4.65
2022-11-28T09:07:26.755Z,5.03
2022-11-28T09:09:57.478Z,4.72
2022-11-28T09:12:26.022Z,3.85
2022-11-28T09:14:55.099Z,4.57
2022-11-28T09:17:25.864Z,4.18
2022-11-28T09:19:55.929Z,3.88
2022-11-28T09:22:24.599Z,4.05
2022-11-28T09:24:53.200Z,3.75
2022-11-28T09:27:23.742Z,3.45
2022-11-28T09:29:52.249Z,4.35
2022-11-28T09:32:20.615Z,4.28
2022-11-28T09:34:51.323Z,3.40
2022-11-28T09:37:21.042Z,3.75
2022-11-28T09:40:11.362Z,3.70
2022-11-28T09:42:42.214Z,4.65
2022-11-28T09:45:17.731Z,3.10
2022-11-28T09:47:54.319Z,3.95
2022-11-28T09:50:26.365Z,3.97
2022-11-28T09:53:02.088Z,3.47
2022-11-28T09:55:37.318Z,2.85
2022-11-28T09:58:13.167Z,3.90
2022-11-28T10:00:54.088Z,3.80
2022-11-28T10:03:40.226Z,3.15
2022-11-28T10:06:19.133Z,3.70
2022-11-28T10:09:03.985Z,3.03
2022-11-28T10:11:46.376Z,3.35
2022-11-28T10:14:45.320Z,3.47
2022-11-28T10:17:21.814Z,3.73
2022-11-28T10:19:56.236Z,3.28
2022-11-28T10:22:47.273Z,4.00
2022-11-28T10:25:23.896Z,3.67
2022-11-28T10:27:52.381Z,2.88
2022-11-28T10:30:24.771Z,3.47
2022-11-28T10:32:59.686Z,3.45
2022-11-28T10:35:36.731Z,3.35
2022-11-28T10:38:13.157Z,3.45
2022-11-28T10:40:50.965Z,3.40
2022-11-28T10:43:31.159Z,3.08
2022-11-28T10:46:23.719Z,3.05
2022-11-28T10:50:01.943Z,3.55
2022-11-28T10:52:39.406Z,3.25
2022-11-28T10:55:27.069Z,3.55
2022-11-28T10:58:09.097Z,3.97
2022-11-28T11:00:38.926Z,3.53
2022-11-28T11:05:42.550Z,3.20
2022-11-28T11:08:19.578Z,2.92
2022-11-28T11:10:51.367Z,2.90
2022-11-28T11:13:26.752Z,3.83
2022-11-28T11:16:00.699Z,3.42
2022-11-28T11:18:32.728Z,3.17
2022-11-28T11:21:17.017Z,3.58
2022-11-28T11:23:47.118Z,3.47
2022-11-28T11:28:54.819Z,3.63
2022-11-28T11:31:28.271Z,2.85
2022-11-28T11:34:04.929Z,3.47
2022-11-28T11:36:39.059Z,2.92
2022-11-28T11:39:23.745Z,3.83
2022-11-28T11:42:10.249Z,3.47
2022-11-28T11:44:42.266Z,3.08
2022-11-28T11:47:12.128Z,2.75
2022-11-28T11:49:44.681Z,3.05
2022-11-28T11:52:22.711Z,3.33
2022-11-28T11:54:59.132Z,3.13
2022-11-28T11:57:34.762Z,2.80
2022-11-28T12:00:08.309Z,3.17
2022-11-28T12:02:46.818Z,3.65
2022-11-28T12:05:19.988Z,2.90
2022-11-28T12:07:57.563Z,3.35
2022-11-28T12:10:30.511Z,3.30
2022-11-28T12:13:01.609Z,3.80
2022-11-28T12:15:42.444Z,2.75
2022-11-28T12:18:25.675Z,3.25
2022-11-28T12:21:16.033Z,3.08
2022-11-28T12:24:05.916Z,2.97
2022-11-28T12:26:43.568Z,2.80
2022-11-28T12:29:44.661Z,3.00
2022-11-28T12:32:29.781Z,3.80
2022-11-28T12:35:16.837Z,2.85
2022-11-28T12:38:12.765Z,2.88
2022-11-28T12:40:59.199Z,3.95
2022-11-28T12:43:42.799Z,3.22
2022-11-28T12:46:21.249Z,3.25
2022-11-28T12:49:04.386Z,3.33
2022-11-28T12:51:45.005Z,3.58
2022-11-28T12:54:35.625Z,2.42
2022-11-28T12:57:13.256Z,3.15
2022-11-28T12:59:49.522Z,3.38
2022-11-28T13:02:29.734Z,2.90
2022-11-28T13:05:28.660Z,3.10
2022-11-28T13:08:32.517Z,3.27
2022-11-28T13:11:14.258Z,3.42
2022-11-28T13:13:48.607Z,2.70
2022-11-28T13:16:28.382Z,3.78
2022-11-28T13:21:43.111Z,2.65
2022-11-28T13:24:29.817Z,3.28
2022-11-28T13:27:10.723Z,2.83
2022-11-28T13:29:47.723Z,3.38
2022-11-28T13:32:25.276Z,3.00
2022-11-28T13:34:55.710Z,2.88
2022-11-28T13:40:58.279Z,3.78
2022-11-28T13:43:35.085Z,3.42
2022-11-28T13:49:19.892Z,3.40
2022-11-28T13:52:10.889Z,3.42
2022-11-28T13:54:47.775Z,3.00
2022-11-28T13:57:31.986Z,3.10
2022-11-28T14:00:07.131Z,3.08
2022-11-28T14:02:47.514Z,3.22
2022-11-28T14:05:26.947Z,3.60
2022-11-28T14:07:57.788Z,2.85
2022-11-28T14:13:36.098Z,3.60
2022-11-28T14:16:17.707Z,2.97
2022-11-28T14:19:04.542Z,3.53
2022-11-28T14:21:46.528Z,2.78
2022-11-28T14:24:24.462Z,3.15
2022-11-28T14:27:03.506Z,3.15
2022-11-28T14:29:39.161Z,3.42
2022-11-28T14:32:29.628Z,3.22
2022-11-28T14:34:56.955Z,4.07
2022-11-28T14:37:52.781Z,3.83
2022-11-28T14:41:06.848Z,3.45
2022-11-28T14:43:38.077Z,3.83
2022-11-28T14:46:32.667Z,3.13
2022-11-28T14:49:23.552Z,3.10
2022-11-28T14:52:38.495Z,3.38
2022-11-28T14:55:18.987Z,3.63
2022-11-28T14:57:59.639Z,2.97
2022-11-28T15:00:32.753Z,3.63
2022-11-28T15:03:17.976Z,3.47
2022-11-28T15:05:48.803Z,3.30
2022-11-28T15:08:55.211Z,3.25
2022-11-28T15:11:48.047Z,3.70
2022-11-28T15:14:22.987Z,4.13
2022-11-28T15:16:56.570Z,4.05
2022-11-28T15:19:29.804Z,3.50
2022-11-28T15:23:00.465Z,3.88
2022-11-28T15:25:35.461Z,3.47
2022-11-28T15:28:17.657Z,3.22
2022-11-28T15:30:49.101Z,3.00
2022-11-28T15:33:18.419Z,3.00
2022-11-28T15:35:58.287Z,2.78
2022-11-28T15:38:29.709Z,4.13
2022-11-28T15:41:00.197Z,2.58
2022-11-28T15:43:30.521Z,3.13
2022-11-28T15:46:02.889Z,2.97
2022-11-28T15:48:39.906Z,2.97
2022-11-28T15:51:26.372Z,3.08
2022-11-28T15:53:55.310Z,3.65
2022-11-28T15:56:24.717Z,3.30
2022-11-28T15:58:54.406Z,3.17
2022-11-28T16:01:25.602Z,3.33
2022-11-28T16:03:57.571Z,3.20
2022-11-28T16:06:32.189Z,3.72
2022-11-28T16:09:03.856Z,3.58
2022-11-28T16:11:33.619Z,4.88
2022-11-28T16:14:09.434Z,4.47
2022-11-28T16:16:40.159Z,4.80
2022-11-28T16:19:19.479Z,3.58
2022-11-28T16:21:58.845Z,3.67
2022-11-28T16:24:38.161Z,3.95
2022-11-28T16:27:08.566Z,3.13
2022-11-28T16:29:38.878Z,3.50
2022-11-28T16:32:09.265Z,3.15
2022-11-28T16:34:49.199Z,3.22
2022-11-28T16:40:02.388Z,2.75
2022-11-28T16:42:31.488Z,3.08
2022-11-28T16:45:08.570Z,3.53
2022-11-28T16:47:40.208Z,2.75
2022-11-28T16:50:21.384Z,4.18
2022-11-28T16:52:54.729Z,3.38
2022-11-28T16:55:44.336Z,3.42
2022-11-28T17:01:03.232Z,3.33
2022-11-28T17:03:44.404Z,3.53
2022-11-28T17:06:28.449Z,3.25
2022-11-28T17:08:59.062Z,3.13
2022-11-28T17:11:33.169Z,4.00
2022-11-28T17:14:08.782Z,2.97
2022-11-28T17:16:40.859Z,3.70
2022-11-28T17:19:09.442Z,4.13
2022-11-28T17:21:42.910Z,3.60
2022-11-28T17:24:18.815Z,3.53
2022-11-28T17:26:47.445Z,5.43
2022-11-28T17:29:18.171Z,4.93
2022-11-28T17:31:48.719Z,4.30
2022-11-28T17:34:19.193Z,3.65
2022-11-28T17:36:49.418Z,2.67
2022-11-28T17:39:22.343Z,3.97
2022-11-28T17:41:50.898Z,3.60
2022-11-28T17:44:21.729Z,3.33
2022-11-28T17:46:52.652Z,4.13
2022-11-28T17:49:25.538Z,3.95
2022-11-28T17:51:58.952Z,3.55
2022-11-28T17:54:28.769Z,2.95
2022-11-28T17:57:01.851Z,3.15
2022-11-28T17:59:30.657Z,3.60
2022-11-28T18:02:00.734Z,3.70
2022-11-28T18:04:28.874Z,3.03
2022-11-28T18:07:00.056Z,4.05
2022-11-28T18:09:32.640Z,3.70
2022-11-28T18:12:01.015Z,3.80
2022-11-28T18:14:33.965Z,3.40
2022-11-28T18:17:04.854Z,3.35
2022-11-28T18:19:34.177Z,3.30
2022-11-28T18:24:34.450Z,3.15
2022-11-28T18:27:05.529Z,4.15
2022-11-28T18:29:36.315Z,3.60
2022-11-28T18:32:07.261Z,3.42
2022-11-28T18:34:36.846Z,3.25
2022-11-28T18:37:09.898Z,3.78
2022-11-28T18:39:45.984Z,3.72
2022-11-28T18:42:16.828Z,4.88
2022-11-28T18:44:45.282Z,4.47
2022-11-28T18:47:15.017Z,4.55
2022-11-28T18:49:44.470Z,3.70
2022-11-28T18:52:24.102Z,5.57
2022-11-28T18:54:53.922Z,6.00
2022-11-28T18:57:22.521Z,6.75
2022-11-28T19:02:25.132Z,7.35
2022-11-28T19:04:53.748Z,6.85
2022-11-28T19:07:22.135Z,7.00
2022-11-28T19:09:51.042Z,8.85
2022-11-28T19:12:25.032Z,10.80
2022-11-28T19:15:00.315Z,17.83
2022-11-28T19:17:30.686Z,14.55
2022-11-28T19:19:59.364Z,13.07
2022-11-28T19:22:31.396Z,10.77
2022-11-28T19:24:59.890Z,7.65
2022-11-28T19:27:35.685Z,4.70
2022-11-28T19:30:04.902Z,4.20
2022-11-28T19:32:33.354Z,4.53
2022-11-28T19:35:02.597Z,5.82
2022-11-28T19:37:32.356Z,4.45
2022-11-28T19:40:02.743Z,4.73
2022-11-28T19:42:35.892Z,4.82
2022-11-28T19:45:05.965Z,5.40
2022-11-28T19:47:34.217Z,6.10
2022-11-28T19:50:04.159Z,5.68
2022-11-28T19:52:34.136Z,4.30
2022-11-28T19:55:08.512Z,5.13
2022-11-28T19:57:42.147Z,4.97
2022-11-28T20:00:12.799Z,4.65
2022-11-28T20:02:47.701Z,5.07
2022-11-28T20:05:16.359Z,3.97
2022-11-28T20:07:44.760Z,4.32
2022-11-28T20:10:15.202Z,4.20
2022-11-28T20:12:46.693Z,5.20
2022-11-28T20:15:18.380Z,3.80
2022-11-28T20:17:47.626Z,4.82
2022-11-28T20:20:17.019Z,4.60
2022-11-28T20:22:45.774Z,4.22
2022-11-28T20:27:52.868Z,4.57
2022-11-28T20:30:21.783Z,4.95
2022-11-28T20:32:52.022Z,4.97
2022-11-28T20:37:54.714Z,4.10
2022-11-28T20:40:23.583Z,4.00
2022-11-28T20:42:53.279Z,4.07
2022-11-28T20:45:22.211Z,4.93
2022-11-28T20:47:50.615Z,5.50
2022-11-28T20:50:18.766Z,4.32
2022-11-28T20:52:48.344Z,4.90
2022-11-28T20:55:16.524Z,5.97
2022-11-28T20:57:45.556Z,5.93
2022-11-28T21:00:17.102Z,6.47
2022-11-28T21:02:47.978Z,6.47
2022-11-28T21:05:17.779Z,5.53
2022-11-28T21:07:46.537Z,5.82
2022-11-28T21:10:15.145Z,6.75
2022-11-28T21:12:44.381Z,5.78
2022-11-28T21:15:15.602Z,6.57
2022-11-28T21:17:47.365Z,6.68
2022-11-28T21:20:15.568Z,6.35
2022-11-28T21:22:44.554Z,6.50
2022-11-28T21:25:13.654Z,6.50
2022-11-28T21:27:44.311Z,5.18
2022-11-28T21:30:13.215Z,4.80
2022-11-28T21:32:43.024Z,5.67
2022-11-28T21:35:11.285Z,5.32
2022-11-28T21:37:41.048Z,4.95
2022-11-28T21:40:10.850Z,5.55
2022-11-28T21:42:39.404Z,5.43
2022-11-28T21:45:10.425Z,5.18
2022-11-28T21:47:40.422Z,4.35
2022-11-28T21:50:11.961Z,3.85
2022-11-28T21:52:41.754Z,5.38
2022-11-28T21:55:10.957Z,5.32
2022-11-28T21:57:42.016Z,4.82
2022-11-28T22:00:31.279Z,5.75
2022-11-28T22:05:52.737Z,5.55
2022-11-28T22:08:21.603Z,5.63
2022-11-28T22:10:50.031Z,5.80
2022-11-28T22:13:18.710Z,5.23
2022-11-28T22:15:49.052Z,4.75
2022-11-28T22:18:18.259Z,5.18
2022-11-28T22:20:50.227Z,5.82
2022-11-28T22:23:22.314Z,4.07
2022-11-28T22:25:52.085Z,5.65
2022-11-28T22:28:22.954Z,4.90
2022-11-28T22:30:51.928Z,5.57
2022-11-28T22:33:21.083Z,4.80
2022-11-28T22:35:53.385Z,4.03
2022-11-28T22:38:23.552Z,3.95
2022-11-28T22:40:52.902Z,4.60
2022-11-28T22:43:21.923Z,5.35
2022-11-28T22:45:56.671Z,5.60
2022-11-28T22:48:27.858Z,5.63
2022-11-28T22:50:57.196Z,5.80
2022-11-28T22:53:29.410Z,6.55
2022-11-28T22:55:59.160Z,5.05
2022-11-28T22:58:27.546Z,4.95
2022-11-28T23:00:56.037Z,5.60
2022-11-28T23:05:54.152Z,4.88
2022-11-28T23:08:22.269Z,3.88
2022-11-28T23:10:51.997Z,5.07
2022-11-28T23:13:21.692Z,4.88
2022-11-28T23:15:52.887Z,4.45
2022-11-28T23:18:22.165Z,4.28
2022-11-28T23:20:52.377Z,6.10
2022-11-28T23:23:22.128Z,5.80
2022-11-28T23:30:50.808Z,5.20
2022-11-28T23:33:19.583Z,5.75
2022-11-28T23:35:48.869Z,5.43
2022-11-28T23:38:25.774Z,6.38
2022-11-28T23:40:57.699Z,4.55
2022-11-28T23:43:26.747Z,5.68
2022-11-28T23:45:55.140Z,5.57
2022-11-28T23:48:25.347Z,5.13
2022-11-28T23:50:53.585Z,4.80
2022-11-28T23:53:22.711Z,4.93
2022-11-28T23:55:53.141Z,5.18
2022-11-28T23:58:23.191Z,4.65
